sensor_id;sensor_type;location;lat;lon;timestamp;temperature;humidity
19817;DHT22;68323;49.394;8.434;2023-04-24T00:01:27;12.90;99.90
19817;DHT22;68323;49.394;8.434;2023-04-24T00:03:55;12.90;99.90
19817;DHT22;68323;49.394;8.434;2023-04-24T00:06:21;12.90;99.90
19817;DHT22;68323;49.394;8.434;2023-04-24T00:08:48;13.00;99.90
19817;DHT22;68323;49.394;8.434;2023-04-24T00:11:14;13.00;99.90
19817;DHT22;68323;49.394;8.434;2023-04-24T00:13:40;13.00;99.90
19817;DHT22;68323;49.394;8.434;2023-04-24T00:16:05;12.90;99.90
19817;DHT22;68323;49.394;8.434;2023-04-24T00:18:31;12.90;99.90
19817;DHT22;68323;49.394;8.434;2023-04-24T00:20:56;13.00;99.90
19817;DHT22;68323;49.394;8.434;2023-04-24T00:23:22;12.90;99.90
19817;DHT22;68323;49.394;8.434;2023-04-24T00:25:47;13.00;99.90
19817;DHT22;68323;49.394;8.434;2023-04-24T00:28:13;13.00;99.90
19817;DHT22;68323;49.394;8.434;2023-04-24T00:30:39;13.00;99.90
19817;DHT22;68323;49.394;8.434;2023-04-24T00:33:05;13.00;99.90
19817;DHT22;68323;49.394;8.434;2023-04-24T00:35:30;13.00;99.90
19817;DHT22;68323;49.394;8.434;2023-04-24T00:37:56;13.00;99.90
19817;DHT22;68323;49.394;8.434;2023-04-24T00:40:22;12.90;99.90
19817;DHT22;68323;49.394;8.434;2023-04-24T00:42:47;12.90;99.90
19817;DHT22;68323;49.394;8.434;2023-04-24T00:45:13;12.90;99.90
19817;DHT22;68323;49.394;8.434;2023-04-24T00:47:39;12.80;99.90
19817;DHT22;68323;49.394;8.434;2023-04-24T00:50:06;12.80;99.90
19817;DHT22;68323;49.394;8.434;2023-04-24T00:52:32;12.80;99.90
19817;DHT22;68323;49.394;8.434;2023-04-24T00:54:58;12.80;99.90
19817;DHT22;68323;49.394;8.434;2023-04-24T00:57:24;12.70;99.90
19817;DHT22;68323;49.394;8.434;2023-04-24T00:59:51;12.70;99.90
19817;DHT22;68323;49.394;8.434;2023-04-24T01:02:16;12.70;99.90
19817;DHT22;68323;49.394;8.434;2023-04-24T01:04:42;12.70;99.90
19817;DHT22;68323;49.394;8.434;2023-04-24T01:07:08;12.70;99.90
19817;DHT22;68323;49.394;8.434;2023-04-24T01:09:38;12.70;99.90
19817;DHT22;68323;49.394;8.434;2023-04-24T01:12:05;12.70;99.90
19817;DHT22;68323;49.394;8.434;2023-04-24T01:14:31;12.70;99.90
19817;DHT22;68323;49.394;8.434;2023-04-24T01:16:56;12.70;99.90
19817;DHT22;68323;49.394;8.434;2023-04-24T01:19:23;12.70;99.90
19817;DHT22;68323;49.394;8.434;2023-04-24T01:21:51;12.70;99.90
19817;DHT22;68323;49.394;8.434;2023-04-24T01:24:19;12.60;99.90
19817;DHT22;68323;49.394;8.434;2023-04-24T01:26:45;12.60;99.90
19817;DHT22;68323;49.394;8.434;2023-04-24T01:29:12;12.60;99.90
19817;DHT22;68323;49.394;8.434;2023-04-24T01:31:38;12.60;99.90
19817;DHT22;68323;49.394;8.434;2023-04-24T01:34:05;12.60;99.90
19817;DHT22;68323;49.394;8.434;2023-04-24T01:36:32;12.60;99.90
19817;DHT22;68323;49.394;8.434;2023-04-24T01:38:58;12.60;99.90
19817;DHT22;68323;49.394;8.434;2023-04-24T01:41:23;12.60;99.90
19817;DHT22;68323;49.394;8.434;2023-04-24T01:43:50;12.60;99.90
19817;DHT22;68323;49.394;8.434;2023-04-24T01:46:16;12.60;99.90
19817;DHT22;68323;49.394;8.434;2023-04-24T01:48:42;12.70;99.90
19817;DHT22;68323;49.394;8.434;2023-04-24T01:51:07;12.70;99.90
19817;DHT22;68323;49.394;8.434;2023-04-24T01:53:33;12.70;99.90
19817;DHT22;68323;49.394;8.434;2023-04-24T01:55:58;12.70;99.90
19817;DHT22;68323;49.394;8.434;2023-04-24T01:58:24;12.70;99.90
19817;DHT22;68323;49.394;8.434;2023-04-24T02:00:50;12.70;99.90
19817;DHT22;68323;49.394;8.434;2023-04-24T02:03:15;12.70;99.90
19817;DHT22;68323;49.394;8.434;2023-04-24T02:05:44;12.70;99.90
19817;DHT22;68323;49.394;8.434;2023-04-24T02:08:10;12.70;99.90
19817;DHT22;68323;49.394;8.434;2023-04-24T02:10:35;12.70;99.90
19817;DHT22;68323;49.394;8.434;2023-04-24T02:13:01;12.70;99.90
19817;DHT22;68323;49.394;8.434;2023-04-24T02:15:27;12.60;99.90
19817;DHT22;68323;49.394;8.434;2023-04-24T02:17:53;12.70;99.90
19817;DHT22;68323;49.394;8.434;2023-04-24T02:20:18;12.70;99.90
19817;DHT22;68323;49.394;8.434;2023-04-24T02:22:44;12.70;99.90
19817;DHT22;68323;49.394;8.434;2023-04-24T02:25:10;12.70;99.90
19817;DHT22;68323;49.394;8.434;2023-04-24T02:27:36;12.70;99.90
19817;DHT22;68323;49.394;8.434;2023-04-24T02:30:01;12.60;99.90
19817;DHT22;68323;49.394;8.434;2023-04-24T02:32:28;12.70;99.90
19817;DHT22;68323;49.394;8.434;2023-04-24T02:34:54;12.70;99.90
19817;DHT22;68323;49.394;8.434;2023-04-24T02:37:19;12.60;99.90
19817;DHT22;68323;49.394;8.434;2023-04-24T02:39:45;12.60;99.90
19817;DHT22;68323;49.394;8.434;2023-04-24T02:42:10;12.60;99.90
19817;DHT22;68323;49.394;8.434;2023-04-24T02:44:36;12.70;99.90
19817;DHT22;68323;49.394;8.434;2023-04-24T02:47:01;12.70;99.90
19817;DHT22;68323;49.394;8.434;2023-04-24T02:49:27;12.70;99.90
19817;DHT22;68323;49.394;8.434;2023-04-24T02:51:52;12.70;99.90
19817;DHT22;68323;49.394;8.434;2023-04-24T02:54:18;12.70;99.90
19817;DHT22;68323;49.394;8.434;2023-04-24T02:56:43;12.70;99.90
19817;DHT22;68323;49.394;8.434;2023-04-24T02:59:09;12.70;99.90
19817;DHT22;68323;49.394;8.434;2023-04-24T03:01:35;12.70;99.90
19817;DHT22;68323;49.394;8.434;2023-04-24T03:04:01;12.60;99.90
19817;DHT22;68323;49.394;8.434;2023-04-24T03:06:27;12.60;99.90
19817;DHT22;68323;49.394;8.434;2023-04-24T03:08:53;12.60;99.90
19817;DHT22;68323;49.394;8.434;2023-04-24T03:11:19;12.60;99.90
19817;DHT22;68323;49.394;8.434;2023-04-24T03:13:45;12.60;99.90
19817;DHT22;68323;49.394;8.434;2023-04-24T03:16:10;12.50;99.90
19817;DHT22;68323;49.394;8.434;2023-04-24T03:18:36;12.50;99.90
19817;DHT22;68323;49.394;8.434;2023-04-24T03:21:02;12.50;99.90
19817;DHT22;68323;49.394;8.434;2023-04-24T03:23:28;12.40;99.90
19817;DHT22;68323;49.394;8.434;2023-04-24T03:25:54;12.40;99.90
19817;DHT22;68323;49.394;8.434;2023-04-24T03:28:20;12.40;99.90
19817;DHT22;68323;49.394;8.434;2023-04-24T03:30:45;12.40;99.90
19817;DHT22;68323;49.394;8.434;2023-04-24T03:33:11;12.30;99.90
19817;DHT22;68323;49.394;8.434;2023-04-24T03:35:37;12.30;99.90
19817;DHT22;68323;49.394;8.434;2023-04-24T03:38:02;12.30;99.90
19817;DHT22;68323;49.394;8.434;2023-04-24T03:40:30;12.20;99.90
19817;DHT22;68323;49.394;8.434;2023-04-24T03:42:55;12.20;99.90
19817;DHT22;68323;49.394;8.434;2023-04-24T03:45:21;12.20;99.90
19817;DHT22;68323;49.394;8.434;2023-04-24T03:47:46;12.20;99.90
19817;DHT22;68323;49.394;8.434;2023-04-24T03:50:12;12.10;99.90
19817;DHT22;68323;49.394;8.434;2023-04-24T03:52:37;12.10;99.90
19817;DHT22;68323;49.394;8.434;2023-04-24T03:55:03;12.00;99.90
19817;DHT22;68323;49.394;8.434;2023-04-24T03:57:29;11.90;99.90
19817;DHT22;68323;49.394;8.434;2023-04-24T03:59:54;11.80;99.90
19817;DHT22;68323;49.394;8.434;2023-04-24T04:02:20;11.80;99.90
19817;DHT22;68323;49.394;8.434;2023-04-24T04:04:46;11.70;99.90
19817;DHT22;68323;49.394;8.434;2023-04-24T04:07:11;11.50;99.90
19817;DHT22;68323;49.394;8.434;2023-04-24T04:09:38;11.40;99.90
19817;DHT22;68323;49.394;8.434;2023-04-24T04:12:03;11.30;99.90
19817;DHT22;68323;49.394;8.434;2023-04-24T04:14:29;11.20;99.90
19817;DHT22;68323;49.394;8.434;2023-04-24T04:16:54;11.10;99.90
19817;DHT22;68323;49.394;8.434;2023-04-24T04:19:20;11.10;99.90
19817;DHT22;68323;49.394;8.434;2023-04-24T04:21:46;11.00;99.90
19817;DHT22;68323;49.394;8.434;2023-04-24T04:24:11;10.90;99.90
19817;DHT22;68323;49.394;8.434;2023-04-24T04:26:37;10.90;99.90
19817;DHT22;68323;49.394;8.434;2023-04-24T04:29:03;10.90;99.90
19817;DHT22;68323;49.394;8.434;2023-04-24T04:31:29;10.90;99.90
19817;DHT22;68323;49.394;8.434;2023-04-24T04:33:55;10.80;99.90
19817;DHT22;68323;49.394;8.434;2023-04-24T04:36:21;10.70;99.90
19817;DHT22;68323;49.394;8.434;2023-04-24T04:38:46;10.70;99.90
19817;DHT22;68323;49.394;8.434;2023-04-24T04:41:12;10.70;99.90
19817;DHT22;68323;49.394;8.434;2023-04-24T04:43:37;10.70;99.90
19817;DHT22;68323;49.394;8.434;2023-04-24T04:46:04;10.70;99.90
19817;DHT22;68323;49.394;8.434;2023-04-24T04:48:30;10.70;99.90
19817;DHT22;68323;49.394;8.434;2023-04-24T04:50:57;10.70;99.90
19817;DHT22;68323;49.394;8.434;2023-04-24T04:53:22;10.70;99.90
19817;DHT22;68323;49.394;8.434;2023-04-24T04:55:48;10.70;99.90
19817;DHT22;68323;49.394;8.434;2023-04-24T04:58:14;10.80;99.90
19817;DHT22;68323;49.394;8.434;2023-04-24T05:00:39;10.80;99.90
19817;DHT22;68323;49.394;8.434;2023-04-24T05:03:05;10.80;99.90
19817;DHT22;68323;49.394;8.434;2023-04-24T05:05:30;10.90;99.90
19817;DHT22;68323;49.394;8.434;2023-04-24T05:07:56;11.00;99.90
19817;DHT22;68323;49.394;8.434;2023-04-24T05:10:21;11.10;99.90
19817;DHT22;68323;49.394;8.434;2023-04-24T05:12:47;11.20;99.90
19817;DHT22;68323;49.394;8.434;2023-04-24T05:15:12;11.30;99.90
19817;DHT22;68323;49.394;8.434;2023-04-24T05:17:38;11.40;99.90
19817;DHT22;68323;49.394;8.434;2023-04-24T05:20:05;11.50;99.90
19817;DHT22;68323;49.394;8.434;2023-04-24T05:22:31;11.60;99.90
19817;DHT22;68323;49.394;8.434;2023-04-24T05:24:57;11.90;99.90
19817;DHT22;68323;49.394;8.434;2023-04-24T05:27:23;12.00;99.90
19817;DHT22;68323;49.394;8.434;2023-04-24T05:29:49;12.20;99.90
19817;DHT22;68323;49.394;8.434;2023-04-24T05:32:15;12.30;99.90
19817;DHT22;68323;49.394;8.434;2023-04-24T05:34:40;12.50;99.90
19817;DHT22;68323;49.394;8.434;2023-04-24T05:37:06;12.80;99.90
19817;DHT22;68323;49.394;8.434;2023-04-24T05:39:34;13.40;99.90
19817;DHT22;68323;49.394;8.434;2023-04-24T05:42:00;14.10;99.90
19817;DHT22;68323;49.394;8.434;2023-04-24T05:44:26;14.70;99.90
19817;DHT22;68323;49.394;8.434;2023-04-24T05:46:52;15.10;99.90
19817;DHT22;68323;49.394;8.434;2023-04-24T05:49:17;15.40;99.90
19817;DHT22;68323;49.394;8.434;2023-04-24T05:51:43;15.90;99.90
19817;DHT22;68323;49.394;8.434;2023-04-24T05:54:08;16.30;99.80
19817;DHT22;68323;49.394;8.434;2023-04-24T05:56:35;16.30;98.30
19817;DHT22;68323;49.394;8.434;2023-04-24T05:59:01;16.20;98.20
19817;DHT22;68323;49.394;8.434;2023-04-24T06:01:26;16.00;98.10
19817;DHT22;68323;49.394;8.434;2023-04-24T06:03:52;15.90;98.80
19817;DHT22;68323;49.394;8.434;2023-04-24T06:06:18;15.80;98.50
19817;DHT22;68323;49.394;8.434;2023-04-24T06:08:44;15.60;99.10
19817;DHT22;68323;49.394;8.434;2023-04-24T06:11:10;15.30;99.40
19817;DHT22;68323;49.394;8.434;2023-04-24T06:13:36;15.10;99.90
19817;DHT22;68323;49.394;8.434;2023-04-24T06:16:01;14.80;99.90
19817;DHT22;68323;49.394;8.434;2023-04-24T06:18:27;14.60;99.90
19817;DHT22;68323;49.394;8.434;2023-04-24T06:20:52;14.30;99.90
19817;DHT22;68323;49.394;8.434;2023-04-24T06:23:18;14.10;99.90
19817;DHT22;68323;49.394;8.434;2023-04-24T06:25:44;13.90;99.90
19817;DHT22;68323;49.394;8.434;2023-04-24T06:28:09;13.60;99.90
19817;DHT22;68323;49.394;8.434;2023-04-24T06:30:35;13.50;99.90
19817;DHT22;68323;49.394;8.434;2023-04-24T06:33:00;13.30;99.90
19817;DHT22;68323;49.394;8.434;2023-04-24T06:35:26;13.20;99.90
19817;DHT22;68323;49.394;8.434;2023-04-24T06:37:51;13.10;99.90
19817;DHT22;68323;49.394;8.434;2023-04-24T06:40:17;13.10;99.90
19817;DHT22;68323;49.394;8.434;2023-04-24T06:42:44;13.00;99.90
19817;DHT22;68323;49.394;8.434;2023-04-24T06:45:09;13.00;99.90
19817;DHT22;68323;49.394;8.434;2023-04-24T06:47:35;12.80;99.90
19817;DHT22;68323;49.394;8.434;2023-04-24T06:50:01;12.70;99.90
19817;DHT22;68323;49.394;8.434;2023-04-24T06:52:26;12.60;99.90
19817;DHT22;68323;49.394;8.434;2023-04-24T06:54:52;12.60;99.90
19817;DHT22;68323;49.394;8.434;2023-04-24T06:57:18;12.50;99.90
19817;DHT22;68323;49.394;8.434;2023-04-24T06:59:45;12.50;99.90
19817;DHT22;68323;49.394;8.434;2023-04-24T07:02:10;12.50;99.90
19817;DHT22;68323;49.394;8.434;2023-04-24T07:04:36;12.70;99.90
19817;DHT22;68323;49.394;8.434;2023-04-24T07:07:02;12.90;99.90
19817;DHT22;68323;49.394;8.434;2023-04-24T07:09:27;13.00;99.90
19817;DHT22;68323;49.394;8.434;2023-04-24T07:11:53;13.20;99.90
19817;DHT22;68323;49.394;8.434;2023-04-24T07:14:20;13.20;99.90
19817;DHT22;68323;49.394;8.434;2023-04-24T07:16:45;13.30;99.90
19817;DHT22;68323;49.394;8.434;2023-04-24T07:19:12;13.40;99.90
19817;DHT22;68323;49.394;8.434;2023-04-24T07:21:38;13.40;99.90
19817;DHT22;68323;49.394;8.434;2023-04-24T07:24:04;13.50;99.90
19817;DHT22;68323;49.394;8.434;2023-04-24T07:26:30;13.60;99.90
19817;DHT22;68323;49.394;8.434;2023-04-24T07:28:56;13.80;99.90
19817;DHT22;68323;49.394;8.434;2023-04-24T07:31:21;13.80;99.90
19817;DHT22;68323;49.394;8.434;2023-04-24T07:33:47;13.80;99.90
19817;DHT22;68323;49.394;8.434;2023-04-24T07:36:12;13.80;99.90
19817;DHT22;68323;49.394;8.434;2023-04-24T07:38:42;13.90;99.90
19817;DHT22;68323;49.394;8.434;2023-04-24T07:41:08;13.90;99.90
19817;DHT22;68323;49.394;8.434;2023-04-24T07:43:34;14.50;99.90
19817;DHT22;68323;49.394;8.434;2023-04-24T07:45:59;15.80;98.00
19817;DHT22;68323;49.394;8.434;2023-04-24T07:48:25;17.20;93.30
19817;DHT22;68323;49.394;8.434;2023-04-24T07:50:52;18.40;88.20
19817;DHT22;68323;49.394;8.434;2023-04-24T07:53:17;19.10;83.90
19817;DHT22;68323;49.394;8.434;2023-04-24T07:55:43;20.10;79.30
19817;DHT22;68323;49.394;8.434;2023-04-24T07:58:08;21.00;73.30
19817;DHT22;68323;49.394;8.434;2023-04-24T08:00:34;21.60;68.20
19817;DHT22;68323;49.394;8.434;2023-04-24T08:03:00;22.20;64.90
19817;DHT22;68323;49.394;8.434;2023-04-24T08:05:25;22.90;61.00
19817;DHT22;68323;49.394;8.434;2023-04-24T08:07:52;23.70;58.30
19817;DHT22;68323;49.394;8.434;2023-04-24T08:10:18;24.30;54.90
19817;DHT22;68323;49.394;8.434;2023-04-24T08:12:43;24.40;53.00
19817;DHT22;68323;49.394;8.434;2023-04-24T08:15:09;23.90;53.20
19817;DHT22;68323;49.394;8.434;2023-04-24T08:17:35;23.50;53.30
19817;DHT22;68323;49.394;8.434;2023-04-24T08:20:02;22.80;54.50
19817;DHT22;68323;49.394;8.434;2023-04-24T08:22:27;22.00;56.60
19817;DHT22;68323;49.394;8.434;2023-04-24T08:24:54;21.10;58.00
19817;DHT22;68323;49.394;8.434;2023-04-24T08:27:20;20.20;58.90
19817;DHT22;68323;49.394;8.434;2023-04-24T08:29:45;19.30;60.50
19817;DHT22;68323;49.394;8.434;2023-04-24T08:32:11;18.60;63.20
19817;DHT22;68323;49.394;8.434;2023-04-24T08:34:36;18.10;66.60
19817;DHT22;68323;49.394;8.434;2023-04-24T08:37:02;18.20;68.80
19817;DHT22;68323;49.394;8.434;2023-04-24T08:39:28;18.80;68.10
19817;DHT22;68323;49.394;8.434;2023-04-24T08:41:55;19.90;66.70
19817;DHT22;68323;49.394;8.434;2023-04-24T08:44:21;21.20;62.40
19817;DHT22;68323;49.394;8.434;2023-04-24T08:46:48;21.90;58.70
19817;DHT22;68323;49.394;8.434;2023-04-24T08:49:14;22.40;58.70
19817;DHT22;68323;49.394;8.434;2023-04-24T08:51:42;22.60;57.80
19817;DHT22;68323;49.394;8.434;2023-04-24T08:54:08;22.30;57.50
19817;DHT22;68323;49.394;8.434;2023-04-24T08:56:34;21.80;56.90
19817;DHT22;68323;49.394;8.434;2023-04-24T08:58:59;21.20;58.20
19817;DHT22;68323;49.394;8.434;2023-04-24T09:01:25;20.50;59.30
19817;DHT22;68323;49.394;8.434;2023-04-24T09:03:53;20.20;61.70
19817;DHT22;68323;49.394;8.434;2023-04-24T09:06:20;20.70;61.90
19817;DHT22;68323;49.394;8.434;2023-04-24T09:08:47;20.90;58.80
19817;DHT22;68323;49.394;8.434;2023-04-24T09:11:14;20.50;58.70
19817;DHT22;68323;49.394;8.434;2023-04-24T09:13:40;19.90;60.10
19817;DHT22;68323;49.394;8.434;2023-04-24T09:16:06;19.20;61.40
19817;DHT22;68323;49.394;8.434;2023-04-24T09:18:31;18.50;63.80
19817;DHT22;68323;49.394;8.434;2023-04-24T09:21:05;18.00;66.50
19817;DHT22;68323;49.394;8.434;2023-04-24T09:23:32;17.50;66.20
19817;DHT22;68323;49.394;8.434;2023-04-24T09:25:59;17.10;67.60
19817;DHT22;68323;49.394;8.434;2023-04-24T09:28:29;16.70;68.70
19817;DHT22;68323;49.394;8.434;2023-04-24T09:31:15;16.50;69.90
19817;DHT22;68323;49.394;8.434;2023-04-24T09:34:04;16.30;71.00
19817;DHT22;68323;49.394;8.434;2023-04-24T09:36:37;16.60;71.20
19817;DHT22;68323;49.394;8.434;2023-04-24T09:39:04;17.10;70.00
19817;DHT22;68323;49.394;8.434;2023-04-24T09:41:32;17.80;67.60
19817;DHT22;68323;49.394;8.434;2023-04-24T09:46:38;19.60;63.10
19817;DHT22;68323;49.394;8.434;2023-04-24T09:49:09;20.80;60.70
19817;DHT22;68323;49.394;8.434;2023-04-24T09:51:37;21.10;58.20
19817;DHT22;68323;49.394;8.434;2023-04-24T09:54:04;21.10;57.50
19817;DHT22;68323;49.394;8.434;2023-04-24T09:56:36;20.80;57.70
19817;DHT22;68323;49.394;8.434;2023-04-24T09:59:07;20.30;58.40
19817;DHT22;68323;49.394;8.434;2023-04-24T10:01:33;19.90;59.60
19817;DHT22;68323;49.394;8.434;2023-04-24T10:03:59;19.50;59.90
19817;DHT22;68323;49.394;8.434;2023-04-24T10:06:34;19.10;60.60
19817;DHT22;68323;49.394;8.434;2023-04-24T10:09:00;18.60;62.90
19817;DHT22;68323;49.394;8.434;2023-04-24T10:11:30;18.00;64.60
19817;DHT22;68323;49.394;8.434;2023-04-24T10:13:56;17.60;65.10
19817;DHT22;68323;49.394;8.434;2023-04-24T10:16:23;17.20;68.10
19817;DHT22;68323;49.394;8.434;2023-04-24T10:18:48;16.80;68.30
19817;DHT22;68323;49.394;8.434;2023-04-24T10:21:17;16.40;70.30
19817;DHT22;68323;49.394;8.434;2023-04-24T10:23:43;16.20;72.00
19817;DHT22;68323;49.394;8.434;2023-04-24T10:26:12;16.10;72.10
19817;DHT22;68323;49.394;8.434;2023-04-24T10:28:47;16.10;73.60
19817;DHT22;68323;49.394;8.434;2023-04-24T10:31:13;16.00;74.40
19817;DHT22;68323;49.394;8.434;2023-04-24T10:33:43;16.00;74.50
19817;DHT22;68323;49.394;8.434;2023-04-24T10:36:12;16.10;74.90
19817;DHT22;68323;49.394;8.434;2023-04-24T10:38:40;16.40;73.50
19817;DHT22;68323;49.394;8.434;2023-04-24T10:41:10;16.80;72.80
19817;DHT22;68323;49.394;8.434;2023-04-24T10:43:42;17.20;71.00
19817;DHT22;68323;49.394;8.434;2023-04-24T10:46:19;17.80;71.10
19817;DHT22;68323;49.394;8.434;2023-04-24T10:48:54;18.10;67.10
19817;DHT22;68323;49.394;8.434;2023-04-24T10:51:22;18.40;68.40
19817;DHT22;68323;49.394;8.434;2023-04-24T10:53:50;18.90;66.50
19817;DHT22;68323;49.394;8.434;2023-04-24T10:56:16;19.10;64.40
19817;DHT22;68323;49.394;8.434;2023-04-24T10:58:53;19.10;64.50
19817;DHT22;68323;49.394;8.434;2023-04-24T11:01:30;19.10;65.90
19817;DHT22;68323;49.394;8.434;2023-04-24T11:03:59;19.00;65.70
19817;DHT22;68323;49.394;8.434;2023-04-24T11:06:35;19.00;66.00
19817;DHT22;68323;49.394;8.434;2023-04-24T11:09:11;19.00;65.80
19817;DHT22;68323;49.394;8.434;2023-04-24T11:11:45;18.90;65.60
19817;DHT22;68323;49.394;8.434;2023-04-24T11:14:10;18.70;66.40
19817;DHT22;68323;49.394;8.434;2023-04-24T11:16:52;18.50;66.60
19817;DHT22;68323;49.394;8.434;2023-04-24T11:19:23;18.40;68.30
19817;DHT22;68323;49.394;8.434;2023-04-24T11:24:39;18.40;67.80
19817;DHT22;68323;49.394;8.434;2023-04-24T11:27:14;18.50;66.80
19817;DHT22;68323;49.394;8.434;2023-04-24T11:29:48;18.60;66.90
19817;DHT22;68323;49.394;8.434;2023-04-24T11:35:01;19.00;65.20
19817;DHT22;68323;49.394;8.434;2023-04-24T11:37:35;19.10;64.60
19817;DHT22;68323;49.394;8.434;2023-04-24T11:40:02;19.20;62.90
19817;DHT22;68323;49.394;8.434;2023-04-24T11:42:36;19.30;63.20
19817;DHT22;68323;49.394;8.434;2023-04-24T11:45:08;19.30;61.00
19817;DHT22;68323;49.394;8.434;2023-04-24T11:47:35;19.30;61.10
19817;DHT22;68323;49.394;8.434;2023-04-24T11:50:01;19.10;60.70
19817;DHT22;68323;49.394;8.434;2023-04-24T11:52:28;19.00;61.00
19817;DHT22;68323;49.394;8.434;2023-04-24T11:54:54;18.70;62.00
19817;DHT22;68323;49.394;8.434;2023-04-24T11:57:20;18.50;63.70
19817;DHT22;68323;49.394;8.434;2023-04-24T11:59:47;18.20;62.60
19817;DHT22;68323;49.394;8.434;2023-04-24T12:02:25;18.00;64.20
19817;DHT22;68323;49.394;8.434;2023-04-24T12:04:54;17.80;64.40
19817;DHT22;68323;49.394;8.434;2023-04-24T12:07:21;17.60;66.10
19817;DHT22;68323;49.394;8.434;2023-04-24T12:09:56;17.60;66.10
19817;DHT22;68323;49.394;8.434;2023-04-24T12:12:24;17.60;65.70
19817;DHT22;68323;49.394;8.434;2023-04-24T12:14:54;17.60;66.80
19817;DHT22;68323;49.394;8.434;2023-04-24T12:17:31;17.80;66.80
19817;DHT22;68323;49.394;8.434;2023-04-24T12:20:02;18.00;64.90
19817;DHT22;68323;49.394;8.434;2023-04-24T12:22:52;18.10;64.90
19817;DHT22;68323;49.394;8.434;2023-04-24T12:25:21;18.10;64.60
19817;DHT22;68323;49.394;8.434;2023-04-24T12:27:55;18.00;64.90
19817;DHT22;68323;49.394;8.434;2023-04-24T12:30:41;18.00;65.20
19817;DHT22;68323;49.394;8.434;2023-04-24T12:33:07;18.10;64.20
19817;DHT22;68323;49.394;8.434;2023-04-24T12:35:33;18.10;63.30
19817;DHT22;68323;49.394;8.434;2023-04-24T12:38:13;18.30;62.30
19817;DHT22;68323;49.394;8.434;2023-04-24T12:40:44;18.50;61.80
19817;DHT22;68323;49.394;8.434;2023-04-24T12:43:19;18.70;62.00
19817;DHT22;68323;49.394;8.434;2023-04-24T12:45:47;18.90;61.30
19817;DHT22;68323;49.394;8.434;2023-04-24T12:48:12;19.10;60.50
19817;DHT22;68323;49.394;8.434;2023-04-24T12:50:41;19.20;60.50
19817;DHT22;68323;49.394;8.434;2023-04-24T12:53:08;19.30;59.90
19817;DHT22;68323;49.394;8.434;2023-04-24T12:55:34;19.40;59.20
19817;DHT22;68323;49.394;8.434;2023-04-24T12:58:00;19.50;59.30
19817;DHT22;68323;49.394;8.434;2023-04-24T13:00:26;19.50;58.70
19817;DHT22;68323;49.394;8.434;2023-04-24T13:02:52;19.50;59.40
19817;DHT22;68323;49.394;8.434;2023-04-24T13:05:18;19.30;58.90
19817;DHT22;68323;49.394;8.434;2023-04-24T13:07:43;19.20;59.40
19817;DHT22;68323;49.394;8.434;2023-04-24T13:10:09;19.20;60.00
19817;DHT22;68323;49.394;8.434;2023-04-24T13:12:35;19.20;60.10
19817;DHT22;68323;49.394;8.434;2023-04-24T13:15:01;19.10;59.70
19817;DHT22;68323;49.394;8.434;2023-04-24T13:17:26;19.00;59.80
19817;DHT22;68323;49.394;8.434;2023-04-24T13:19:54;19.00;60.00
19817;DHT22;68323;49.394;8.434;2023-04-24T13:22:20;19.00;59.60
19817;DHT22;68323;49.394;8.434;2023-04-24T13:24:46;18.90;59.60
19817;DHT22;68323;49.394;8.434;2023-04-24T13:27:14;19.00;60.00
19817;DHT22;68323;49.394;8.434;2023-04-24T13:29:39;19.10;59.70
19817;DHT22;68323;49.394;8.434;2023-04-24T13:32:05;19.10;60.60
19817;DHT22;68323;49.394;8.434;2023-04-24T13:34:31;19.10;60.10
19817;DHT22;68323;49.394;8.434;2023-04-24T13:36:58;19.00;60.00
19817;DHT22;68323;49.394;8.434;2023-04-24T13:39:24;19.00;60.00
19817;DHT22;68323;49.394;8.434;2023-04-24T13:41:51;19.10;59.90
19817;DHT22;68323;49.394;8.434;2023-04-24T13:44:17;19.00;59.50
19817;DHT22;68323;49.394;8.434;2023-04-24T13:46:45;18.90;59.30
19817;DHT22;68323;49.394;8.434;2023-04-24T13:49:12;18.80;59.20
19817;DHT22;68323;49.394;8.434;2023-04-24T13:51:39;18.60;59.40
19817;DHT22;68323;49.394;8.434;2023-04-24T13:54:05;18.40;59.60
19817;DHT22;68323;49.394;8.434;2023-04-24T13:56:31;18.20;60.00
19817;DHT22;68323;49.394;8.434;2023-04-24T13:58:56;18.00;60.90
19817;DHT22;68323;49.394;8.434;2023-04-24T14:01:22;17.70;62.20
19817;DHT22;68323;49.394;8.434;2023-04-24T14:03:50;17.50;63.30
19817;DHT22;68323;49.394;8.434;2023-04-24T14:06:17;17.40;63.10
19817;DHT22;68323;49.394;8.434;2023-04-24T14:08:42;17.20;64.00
19817;DHT22;68323;49.394;8.434;2023-04-24T14:11:08;17.10;64.90
19817;DHT22;68323;49.394;8.434;2023-04-24T14:13:33;17.10;65.20
19817;DHT22;68323;49.394;8.434;2023-04-24T14:15:59;17.10;65.70
19817;DHT22;68323;49.394;8.434;2023-04-24T14:18:25;16.80;66.60
19817;DHT22;68323;49.394;8.434;2023-04-24T14:20:52;16.60;67.70
19817;DHT22;68323;49.394;8.434;2023-04-24T14:23:18;16.50;68.50
19817;DHT22;68323;49.394;8.434;2023-04-24T14:25:43;16.50;68.40
19817;DHT22;68323;49.394;8.434;2023-04-24T14:28:09;16.50;68.50
19817;DHT22;68323;49.394;8.434;2023-04-24T14:30:35;16.60;66.90
19817;DHT22;68323;49.394;8.434;2023-04-24T14:33:03;16.60;67.30
19817;DHT22;68323;49.394;8.434;2023-04-24T14:35:29;16.50;67.90
19817;DHT22;68323;49.394;8.434;2023-04-24T14:37:56;16.50;68.30
19817;DHT22;68323;49.394;8.434;2023-04-24T14:40:22;16.40;67.70
19817;DHT22;68323;49.394;8.434;2023-04-24T14:42:47;16.30;68.00
19817;DHT22;68323;49.394;8.434;2023-04-24T14:45:13;16.20;70.90
19817;DHT22;68323;49.394;8.434;2023-04-24T14:47:39;16.00;72.80
19817;DHT22;68323;49.394;8.434;2023-04-24T14:50:05;15.90;75.00
19817;DHT22;68323;49.394;8.434;2023-04-24T14:52:31;16.00;76.10
19817;DHT22;68323;49.394;8.434;2023-04-24T14:54:56;16.20;75.90
19817;DHT22;68323;49.394;8.434;2023-04-24T14:57:22;16.50;73.10
19817;DHT22;68323;49.394;8.434;2023-04-24T14:59:48;16.80;72.30
19817;DHT22;68323;49.394;8.434;2023-04-24T15:02:13;17.00;70.60
19817;DHT22;68323;49.394;8.434;2023-04-24T15:04:39;17.20;68.30
19817;DHT22;68323;49.394;8.434;2023-04-24T15:07:04;17.20;67.90
19817;DHT22;68323;49.394;8.434;2023-04-24T15:09:30;17.20;67.40
19817;DHT22;68323;49.394;8.434;2023-04-24T15:11:58;17.20;67.30
19817;DHT22;68323;49.394;8.434;2023-04-24T15:14:23;17.20;67.30
19817;DHT22;68323;49.394;8.434;2023-04-24T15:16:49;17.00;67.70
19817;DHT22;68323;49.394;8.434;2023-04-24T15:19:14;16.90;68.60
19817;DHT22;68323;49.394;8.434;2023-04-24T15:21:40;16.90;68.10
19817;DHT22;68323;49.394;8.434;2023-04-24T15:24:07;16.80;69.30
19817;DHT22;68323;49.394;8.434;2023-04-24T15:26:33;16.60;69.50
19817;DHT22;68323;49.394;8.434;2023-04-24T15:28:59;16.50;70.30
19817;DHT22;68323;49.394;8.434;2023-04-24T15:31:24;16.50;72.20
19817;DHT22;68323;49.394;8.434;2023-04-24T15:33:50;16.30;75.50
19817;DHT22;68323;49.394;8.434;2023-04-24T15:36:16;16.20;77.90